createdAt,value
2023-08-15T00:00:04.325Z,11.25
2023-08-15T00:05:10.539Z,10.40
2023-08-15T00:10:18.467Z,9.85
2023-08-15T00:15:23.613Z,9.60
2023-08-15T00:20:28.833Z,8.98
2023-08-15T00:25:36.600Z,12.95
2023-08-15T00:30:42.209Z,9.65
2023-08-15T00:35:50.725Z,10.60
2023-08-15T00:40:58.493Z,10.60
2023-08-15T00:46:04.259Z,9.00
2023-08-15T00:51:09.626Z,10.93
2023-08-15T00:56:18.277Z,10.35
2023-08-15T01:01:26.282Z,11.13
2023-08-15T01:06:31.399Z,9.65
2023-08-15T01:11:46.094Z,11.00
2023-08-15T01:16:52.625Z,9.48
2023-08-15T01:21:59.692Z,10.40
2023-08-15T01:27:08.312Z,10.23
2023-08-15T01:32:18.932Z,10.73
2023-08-15T01:37:30.738Z,10.98
2023-08-15T01:42:40.581Z,10.57
2023-08-15T01:47:45.816Z,9.70
2023-08-15T01:52:51.365Z,10.32
2023-08-15T01:57:59.322Z,10.40
2023-08-15T02:03:04.694Z,10.70
2023-08-15T02:08:10.177Z,11.30
2023-08-15T02:13:17.969Z,11.05
2023-08-15T02:18:23.203Z,11.70
2023-08-15T02:23:28.386Z,12.00
2023-08-15T02:28:36.187Z,12.88
2023-08-15T02:33:41.322Z,13.25
2023-08-15T02:38:46.574Z,13.00
2023-08-15T02:43:54.336Z,12.35
2023-08-15T02:48:59.629Z,13.45
2023-08-15T02:54:04.918Z,13.10
2023-08-15T02:59:12.787Z,12.80
2023-08-15T03:04:17.934Z,13.05
2023-08-15T03:09:23.206Z,13.32
2023-08-15T03:14:31.683Z,12.35
2023-08-15T03:19:36.961Z,11.90
2023-08-15T03:24:42.290Z,13.05
2023-08-15T03:29:50.079Z,12.48
2023-08-15T03:34:55.246Z,14.27
2023-08-15T03:40:00.514Z,12.48
2023-08-15T03:45:09.651Z,12.05
2023-08-15T03:50:14.899Z,12.27
2023-08-15T03:55:20.191Z,13.20
2023-08-15T04:00:28.426Z,13.50
2023-08-15T04:05:33.580Z,13.27
2023-08-15T04:10:41.082Z,12.50
2023-08-15T04:15:49.092Z,12.82
2023-08-15T04:20:54.266Z,11.93
2023-08-15T04:25:59.638Z,13.05
2023-08-15T04:31:07.557Z,13.23
2023-08-15T04:36:12.706Z,12.35
2023-08-15T04:41:18.683Z,12.38
2023-08-15T04:46:26.581Z,11.77
2023-08-15T04:51:31.780Z,12.20
2023-08-15T04:56:37.071Z,11.95
2023-08-15T05:01:44.923Z,11.68
2023-08-15T05:06:50.302Z,10.65
2023-08-15T05:11:55.528Z,11.23
2023-08-15T05:17:03.377Z,10.30
2023-08-15T05:22:08.710Z,10.02
2023-08-15T05:27:16.234Z,10.57
2023-08-15T05:32:24.179Z,10.38
2023-08-15T05:37:29.360Z,10.75
2023-08-15T05:42:34.839Z,10.18
2023-08-15T05:47:42.655Z,11.35
2023-08-15T05:52:47.850Z,10.55
2023-08-15T05:57:54.099Z,11.57
2023-08-15T06:03:03.348Z,11.20
2023-08-15T06:08:09.990Z,10.63
2023-08-15T06:13:15.241Z,9.52
2023-08-15T06:18:23.148Z,8.93
2023-08-15T06:23:29.505Z,9.48
2023-08-15T06:28:34.847Z,8.40
2023-08-15T06:33:42.683Z,8.23
2023-08-15T06:38:47.895Z,7.63
2023-08-15T06:43:53.544Z,7.47
2023-08-15T06:49:01.399Z,8.10
2023-08-15T06:54:07.017Z,7.53
2023-08-15T06:59:12.349Z,9.30
2023-08-15T07:04:20.445Z,17.70
2023-08-15T07:09:26.148Z,7.47
2023-08-15T07:14:31.313Z,6.88
2023-08-15T07:19:39.251Z,5.63
2023-08-15T07:24:44.493Z,14.27
2023-08-15T07:29:49.722Z,14.52
2023-08-15T07:34:58.143Z,6.82
2023-08-15T07:40:07.475Z,6.13
2023-08-15T07:45:13.337Z,5.43
2023-08-15T07:50:23.992Z,7.60
2023-08-15T09:18:09.369Z,6.20
2023-08-15T09:23:14.561Z,6.38
2023-08-15T09:28:19.721Z,5.15
2023-08-15T09:33:29.014Z,5.35
2023-08-15T09:38:34.189Z,4.90
2023-08-15T09:43:39.266Z,4.68
2023-08-15T09:48:48.119Z,5.78
2023-08-15T09:53:53.722Z,4.75
2023-08-15T09:58:58.946Z,4.50
2023-08-15T10:04:12.086Z,4.65
2023-08-15T10:09:18.036Z,4.30
2023-08-15T10:14:23.975Z,4.30
2023-08-15T10:19:34.278Z,4.78
2023-08-15T10:24:39.366Z,4.45
2023-08-15T10:30:01.121Z,4.10
2023-08-15T10:35:10.919Z,3.92
2023-08-15T10:40:17.327Z,4.07
2023-08-15T10:45:24.324Z,3.90
2023-08-15T10:50:34.062Z,4.30
2023-08-15T10:55:41.101Z,4.47
2023-08-15T11:00:46.346Z,4.72
2023-08-15T11:05:54.183Z,4.68
2023-08-15T11:10:59.812Z,4.77
2023-08-15T11:16:04.998Z,4.13
2023-08-15T11:21:15.700Z,4.10
2023-08-15T11:26:20.957Z,3.92
2023-08-15T11:31:26.295Z,4.63
2023-08-15T11:36:34.118Z,4.13
2023-08-15T11:41:39.575Z,4.43
2023-08-15T11:46:54.052Z,4.15
2023-08-15T11:52:10.694Z,4.32
2023-08-15T11:57:16.055Z,7.50
2023-08-15T12:02:21.397Z,5.28
2023-08-15T12:07:29.357Z,5.50
2023-08-15T12:12:41.016Z,5.23
2023-08-15T12:17:46.530Z,4.30
2023-08-15T12:22:54.328Z,4.13
2023-08-15T12:27:59.569Z,4.73
2023-08-15T12:33:04.934Z,4.00
2023-08-15T12:38:12.876Z,4.03
2023-08-15T12:43:18.011Z,4.00
2023-08-15T12:48:23.317Z,4.05
2023-08-15T12:53:31.270Z,4.40
2023-08-15T12:58:36.498Z,3.90
2023-08-15T13:03:41.670Z,4.40
2023-08-15T13:08:49.675Z,4.30
2023-08-15T13:13:55.006Z,4.40
2023-08-15T13:19:00.256Z,5.10
2023-08-15T13:24:08.647Z,4.95
2023-08-15T13:29:13.832Z,5.35
2023-08-15T13:34:21.591Z,5.25
2023-08-15T13:39:32.514Z,6.55
2023-08-15T13:44:40.575Z,5.80
2023-08-15T13:49:45.799Z,6.85
2023-08-15T13:54:53.642Z,6.47
2023-08-15T13:59:58.790Z,5.85
2023-08-15T14:05:04.418Z,7.10
2023-08-15T14:10:14.633Z,7.18
2023-08-15T14:15:20.061Z,6.82
2023-08-15T14:20:26.169Z,5.82
2023-08-15T14:25:34.202Z,9.18
2023-08-15T14:30:40.660Z,6.75
2023-08-15T14:35:46.383Z,6.38
2023-08-15T14:40:54.168Z,6.75
2023-08-15T14:45:59.576Z,6.65
2023-08-15T14:51:05.523Z,7.13
2023-08-15T14:56:14.157Z,7.40
2023-08-15T15:01:23.906Z,6.38
2023-08-15T15:06:29.276Z,7.07
2023-08-15T15:11:37.205Z,6.50
2023-08-15T15:16:42.934Z,10.90
2023-08-15T15:21:51.255Z,10.35
2023-08-15T15:27:00.043Z,7.50
2023-08-15T15:32:05.406Z,6.22
2023-08-15T15:37:10.824Z,6.85
2023-08-15T15:42:19.145Z,6.40
2023-08-15T15:47:24.796Z,6.83
2023-08-15T15:52:30.139Z,7.05
2023-08-15T15:57:38.231Z,6.90
2023-08-15T16:02:43.700Z,5.88
2023-08-15T16:07:49.072Z,5.47
2023-08-15T16:12:57.813Z,5.80
2023-08-15T16:18:03.044Z,5.60
2023-08-15T16:23:08.826Z,5.90
2023-08-15T16:28:17.083Z,5.90
2023-08-15T16:33:22.347Z,5.82
2023-08-15T16:38:29.311Z,6.88
2023-08-15T16:43:37.405Z,6.10
2023-08-15T16:48:42.759Z,5.63
2023-08-15T16:53:47.948Z,6.00
2023-08-15T16:58:55.824Z,5.47
2023-08-15T17:04:01.251Z,6.22
2023-08-15T17:09:06.798Z,5.63
2023-08-15T17:14:14.847Z,5.20
2023-08-15T17:19:20.524Z,6.03
2023-08-15T17:24:25.823Z,5.28
2023-08-15T17:29:33.885Z,6.70
2023-08-15T17:34:39.635Z,6.22
2023-08-15T17:39:46.017Z,6.00
2023-08-15T17:44:54.095Z,6.45
2023-08-15T17:49:59.482Z,6.50
2023-08-15T17:55:05.316Z,6.68
2023-08-15T18:00:14.469Z,6.28
2023-08-15T18:05:19.865Z,7.13
2023-08-15T18:10:25.226Z,6.50
2023-08-15T18:15:33.437Z,7.15
2023-08-15T18:20:38.729Z,6.68
2023-08-15T18:25:44.119Z,10.50
2023-08-15T18:30:52.178Z,7.53
2023-08-15T18:35:58.270Z,8.35
2023-08-15T18:41:03.703Z,7.53
2023-08-15T18:46:11.638Z,7.68
2023-08-15T18:51:16.914Z,7.22
2023-08-15T18:56:22.050Z,7.28
2023-08-15T19:01:30.040Z,7.57
2023-08-15T19:06:35.247Z,8.60
2023-08-15T19:11:40.446Z,8.32
2023-08-15T19:16:48.507Z,8.73
2023-08-15T19:21:53.770Z,9.07
2023-08-15T19:26:58.929Z,9.27
2023-08-15T19:32:07.025Z,8.98
2023-08-15T19:37:14.986Z,10.20
2023-08-15T19:42:23.162Z,9.75
2023-08-15T19:47:31.183Z,9.48
2023-08-15T19:52:36.670Z,9.07
2023-08-15T19:57:41.842Z,9.63
2023-08-15T20:02:49.721Z,9.40
2023-08-15T20:07:54.875Z,9.30
2023-08-15T20:13:00.384Z,9.32
2023-08-15T20:18:08.902Z,9.23
2023-08-15T20:23:14.208Z,9.57
2023-08-15T20:28:19.404Z,9.70
2023-08-15T20:33:27.327Z,9.90
2023-08-15T20:38:32.591Z,9.25
2023-08-15T20:43:37.796Z,10.85
2023-08-15T20:48:45.709Z,11.82
2023-08-15T20:53:51.014Z,27.35
2023-08-15T20:58:56.466Z,12.27
2023-08-15T21:04:04.538Z,11.70
2023-08-15T21:09:09.902Z,11.77
2023-08-15T21:14:16.052Z,12.80
2023-08-15T21:19:24.658Z,13.27
2023-08-15T21:24:29.983Z,13.38
2023-08-15T21:29:35.262Z,16.52
2023-08-15T21:34:43.079Z,16.42
2023-08-15T21:39:48.285Z,16.42
2023-08-15T21:44:53.600Z,15.20
2023-08-15T21:50:01.340Z,12.55
2023-08-15T21:55:06.708Z,12.38
2023-08-15T22:00:12.931Z,12.45
2023-08-15T22:05:21.475Z,11.82
2023-08-15T22:10:27.442Z,11.57
2023-08-15T22:15:32.800Z,12.45
2023-08-15T22:20:40.629Z,11.43
2023-08-15T22:25:48.911Z,13.43
2023-08-15T22:30:54.143Z,12.07
2023-08-15T22:36:01.978Z,12.32
2023-08-15T22:41:07.173Z,15.80
2023-08-15T22:46:12.387Z,18.90
2023-08-15T22:51:20.173Z,12.25
2023-08-15T22:56:27.884Z,14.45
2023-08-15T23:01:33.249Z,11.65
2023-08-15T23:06:41.129Z,12.50
2023-08-15T23:11:46.401Z,13.93
2023-08-15T23:16:51.628Z,12.35
2023-08-15T23:21:59.561Z,13.52
2023-08-15T23:27:05.481Z,12.90
2023-08-15T23:32:10.671Z,19.58
2023-08-15T23:37:18.442Z,15.00
2023-08-15T23:42:23.794Z,12.77
2023-08-15T23:47:29.150Z,12.82
2023-08-15T23:52:37.118Z,16.88
2023-08-15T23:57:42.246Z,17.02
